sensor_id;sensor_type;location;lat;lon;timestamp;P1;durP1;ratioP1;P2;durP2;ratioP2
8213;SDS011;4148;47.974;7.824;2024-02-23T00:00:39;1.87;;;0.60;;
8213;SDS011;4148;47.974;7.824;2024-02-23T00:03:07;1.57;;;0.60;;
8213;SDS011;4148;47.974;7.824;2024-02-23T00:05:36;1.77;;;0.67;;
8213;SDS011;4148;47.974;7.824;2024-02-23T00:08:06;1.60;;;0.50;;
8213;SDS011;4148;47.974;7.824;2024-02-23T00:10:35;1.83;;;0.70;;
8213;SDS011;4148;47.974;7.824;2024-02-23T00:13:03;1.30;;;0.70;;
8213;SDS011;4148;47.974;7.824;2024-02-23T00:15:31;3.70;;;0.83;;
8213;SDS011;4148;47.974;7.824;2024-02-23T00:17:59;1.40;;;0.87;;
8213;SDS011;4148;47.974;7.824;2024-02-23T00:20:29;1.73;;;0.77;;
8213;SDS011;4148;47.974;7.824;2024-02-23T00:22:57;1.97;;;0.60;;
8213;SDS011;4148;47.974;7.824;2024-02-23T00:25:27;1.57;;;0.63;;
8213;SDS011;4148;47.974;7.824;2024-02-23T00:27:54;1.20;;;0.60;;
8213;SDS011;4148;47.974;7.824;2024-02-23T00:30:22;1.97;;;0.73;;
8213;SDS011;4148;47.974;7.824;2024-02-23T00:32:50;1.50;;;0.67;;
8213;SDS011;4148;47.974;7.824;2024-02-23T00:35:18;1.07;;;0.50;;
8213;SDS011;4148;47.974;7.824;2024-02-23T00:37:46;1.70;;;0.60;;
8213;SDS011;4148;47.974;7.824;2024-02-23T00:40:14;1.43;;;0.70;;
8213;SDS011;4148;47.974;7.824;2024-02-23T00:42:44;1.23;;;0.60;;
8213;SDS011;4148;47.974;7.824;2024-02-23T00:45:12;4.90;;;0.77;;
8213;SDS011;4148;47.974;7.824;2024-02-23T00:47:40;1.10;;;0.60;;
8213;SDS011;4148;47.974;7.824;2024-02-23T00:50:10;1.00;;;0.50;;
8213;SDS011;4148;47.974;7.824;2024-02-23T00:52:38;5.53;;;0.70;;
8213;SDS011;4148;47.974;7.824;2024-02-23T00:55:07;1.33;;;0.60;;
8213;SDS011;4148;47.974;7.824;2024-02-23T00:57:35;2.60;;;0.80;;
8213;SDS011;4148;47.974;7.824;2024-02-23T01:00:05;1.83;;;0.60;;
8213;SDS011;4148;47.974;7.824;2024-02-23T01:02:35;1.30;;;0.70;;
8213;SDS011;4148;47.974;7.824;2024-02-23T01:05:04;1.40;;;0.80;;
8213;SDS011;4148;47.974;7.824;2024-02-23T01:07:32;5.27;;;0.67;;
8213;SDS011;4148;47.974;7.824;2024-02-23T01:10:00;1.27;;;0.60;;
8213;SDS011;4148;47.974;7.824;2024-02-23T01:12:29;4.37;;;0.70;;
8213;SDS011;4148;47.974;7.824;2024-02-23T01:14:57;3.20;;;0.97;;
8213;SDS011;4148;47.974;7.824;2024-02-23T01:17:32;2.90;;;0.90;;
8213;SDS011;4148;47.974;7.824;2024-02-23T01:20:00;4.00;;;0.83;;
8213;SDS011;4148;47.974;7.824;2024-02-23T01:22:28;2.80;;;0.80;;
8213;SDS011;4148;47.974;7.824;2024-02-23T01:24:55;3.20;;;0.83;;
8213;SDS011;4148;47.974;7.824;2024-02-23T01:27:23;2.13;;;0.70;;
8213;SDS011;4148;47.974;7.824;2024-02-23T01:29:51;1.67;;;0.70;;
8213;SDS011;4148;47.974;7.824;2024-02-23T01:32:19;2.23;;;0.73;;
8213;SDS011;4148;47.974;7.824;2024-02-23T01:34:47;2.50;;;1.20;;
8213;SDS011;4148;47.974;7.824;2024-02-23T01:37:15;3.10;;;0.77;;
8213;SDS011;4148;47.974;7.824;2024-02-23T01:39:43;1.80;;;0.63;;
8213;SDS011;4148;47.974;7.824;2024-02-23T01:42:11;1.60;;;0.73;;
8213;SDS011;4148;47.974;7.824;2024-02-23T01:44:39;1.67;;;0.90;;
8213;SDS011;4148;47.974;7.824;2024-02-23T01:47:07;1.93;;;0.90;;
8213;SDS011;4148;47.974;7.824;2024-02-23T01:49:35;2.27;;;0.80;;
8213;SDS011;4148;47.974;7.824;2024-02-23T01:52:04;2.23;;;1.00;;
8213;SDS011;4148;47.974;7.824;2024-02-23T01:54:33;3.60;;;0.80;;
8213;SDS011;4148;47.974;7.824;2024-02-23T01:57:01;2.80;;;0.80;;
8213;SDS011;4148;47.974;7.824;2024-02-23T01:59:49;3.10;;;1.20;;
8213;SDS011;4148;47.974;7.824;2024-02-23T02:02:17;5.00;;;0.70;;
8213;SDS011;4148;47.974;7.824;2024-02-23T02:04:45;4.60;;;0.80;;
8213;SDS011;4148;47.974;7.824;2024-02-23T02:07:14;1.90;;;1.07;;
8213;SDS011;4148;47.974;7.824;2024-02-23T02:09:44;2.07;;;0.90;;
8213;SDS011;4148;47.974;7.824;2024-02-23T02:12:15;4.33;;;0.97;;
8213;SDS011;4148;47.974;7.824;2024-02-23T02:14:53;3.07;;;0.90;;
8213;SDS011;4148;47.974;7.824;2024-02-23T02:17:21;3.63;;;0.90;;
8213;SDS011;4148;47.974;7.824;2024-02-23T02:19:50;2.23;;;0.90;;
8213;SDS011;4148;47.974;7.824;2024-02-23T02:22:19;2.47;;;0.80;;
8213;SDS011;4148;47.974;7.824;2024-02-23T02:24:47;3.70;;;0.83;;
8213;SDS011;4148;47.974;7.824;2024-02-23T02:27:15;1.30;;;0.80;;
8213;SDS011;4148;47.974;7.824;2024-02-23T02:29:43;2.30;;;1.10;;
8213;SDS011;4148;47.974;7.824;2024-02-23T02:32:11;3.67;;;0.90;;
8213;SDS011;4148;47.974;7.824;2024-02-23T02:34:39;3.10;;;1.30;;
8213;SDS011;4148;47.974;7.824;2024-02-23T02:37:07;1.20;;;0.70;;
8213;SDS011;4148;47.974;7.824;2024-02-23T02:39:36;1.40;;;0.67;;
8213;SDS011;4148;47.974;7.824;2024-02-23T02:42:04;2.20;;;0.83;;
8213;SDS011;4148;47.974;7.824;2024-02-23T02:44:33;3.67;;;1.07;;
8213;SDS011;4148;47.974;7.824;2024-02-23T02:47:01;3.70;;;1.00;;
8213;SDS011;4148;47.974;7.824;2024-02-23T02:49:29;3.67;;;1.00;;
8213;SDS011;4148;47.974;7.824;2024-02-23T02:51:57;2.50;;;1.00;;
8213;SDS011;4148;47.974;7.824;2024-02-23T02:54:24;2.20;;;0.90;;
8213;SDS011;4148;47.974;7.824;2024-02-23T02:56:54;4.10;;;1.00;;
8213;SDS011;4148;47.974;7.824;2024-02-23T02:59:22;1.40;;;0.87;;
8213;SDS011;4148;47.974;7.824;2024-02-23T03:01:54;3.00;;;0.87;;
8213;SDS011;4148;47.974;7.824;2024-02-23T03:04:23;3.53;;;1.17;;
8213;SDS011;4148;47.974;7.824;2024-02-23T03:06:51;2.40;;;1.07;;
8213;SDS011;4148;47.974;7.824;2024-02-23T03:09:19;2.80;;;1.17;;
8213;SDS011;4148;47.974;7.824;2024-02-23T03:11:47;4.80;;;1.03;;
8213;SDS011;4148;47.974;7.824;2024-02-23T03:14:16;3.40;;;0.87;;
8213;SDS011;4148;47.974;7.824;2024-02-23T03:16:47;2.80;;;0.90;;
8213;SDS011;4148;47.974;7.824;2024-02-23T03:19:16;2.37;;;1.00;;
8213;SDS011;4148;47.974;7.824;2024-02-23T03:21:48;1.93;;;0.90;;
8213;SDS011;4148;47.974;7.824;2024-02-23T03:24:17;3.30;;;1.30;;
8213;SDS011;4148;47.974;7.824;2024-02-23T03:26:44;4.43;;;0.90;;
8213;SDS011;4148;47.974;7.824;2024-02-23T03:29:12;3.47;;;0.90;;
8213;SDS011;4148;47.974;7.824;2024-02-23T03:31:42;1.40;;;0.83;;
8213;SDS011;4148;47.974;7.824;2024-02-23T03:34:10;3.17;;;1.27;;
8213;SDS011;4148;47.974;7.824;2024-02-23T03:36:39;2.50;;;1.10;;
8213;SDS011;4148;47.974;7.824;2024-02-23T03:39:07;4.00;;;0.90;;
8213;SDS011;4148;47.974;7.824;2024-02-23T03:41:35;3.17;;;1.13;;
8213;SDS011;4148;47.974;7.824;2024-02-23T03:44:03;2.60;;;0.83;;
8213;SDS011;4148;47.974;7.824;2024-02-23T03:46:31;2.80;;;1.07;;
8213;SDS011;4148;47.974;7.824;2024-02-23T03:49:02;4.53;;;1.10;;
8213;SDS011;4148;47.974;7.824;2024-02-23T03:51:30;2.37;;;1.30;;
8213;SDS011;4148;47.974;7.824;2024-02-23T03:53:59;2.87;;;1.20;;
8213;SDS011;4148;47.974;7.824;2024-02-23T03:56:27;2.97;;;0.90;;
8213;SDS011;4148;47.974;7.824;2024-02-23T03:58:55;3.47;;;1.30;;
8213;SDS011;4148;47.974;7.824;2024-02-23T04:01:23;2.83;;;1.00;;
8213;SDS011;4148;47.974;7.824;2024-02-23T04:03:51;2.07;;;1.20;;
8213;SDS011;4148;47.974;7.824;2024-02-23T04:06:20;4.23;;;0.93;;
8213;SDS011;4148;47.974;7.824;2024-02-23T04:08:48;3.43;;;1.07;;
8213;SDS011;4148;47.974;7.824;2024-02-23T04:11:16;2.40;;;1.33;;
8213;SDS011;4148;47.974;7.824;2024-02-23T04:13:45;3.00;;;0.90;;
8213;SDS011;4148;47.974;7.824;2024-02-23T04:16:16;2.23;;;0.80;;
8213;SDS011;4148;47.974;7.824;2024-02-23T04:18:44;2.37;;;1.10;;
8213;SDS011;4148;47.974;7.824;2024-02-23T04:21:12;3.20;;;0.90;;
8213;SDS011;4148;47.974;7.824;2024-02-23T04:23:42;4.77;;;1.30;;
8213;SDS011;4148;47.974;7.824;2024-02-23T04:26:11;5.87;;;1.17;;
8213;SDS011;4148;47.974;7.824;2024-02-23T04:28:39;3.80;;;1.10;;
8213;SDS011;4148;47.974;7.824;2024-02-23T04:31:07;3.03;;;1.13;;
8213;SDS011;4148;47.974;7.824;2024-02-23T04:33:35;2.70;;;0.87;;
8213;SDS011;4148;47.974;7.824;2024-02-23T04:36:04;4.27;;;1.43;;
8213;SDS011;4148;47.974;7.824;2024-02-23T04:38:32;2.80;;;0.90;;
8213;SDS011;4148;47.974;7.824;2024-02-23T04:41:03;3.90;;;1.10;;
8213;SDS011;4148;47.974;7.824;2024-02-23T04:43:31;3.10;;;1.17;;
8213;SDS011;4148;47.974;7.824;2024-02-23T04:45:59;3.93;;;1.33;;
8213;SDS011;4148;47.974;7.824;2024-02-23T04:48:27;3.10;;;1.37;;
8213;SDS011;4148;47.974;7.824;2024-02-23T04:50:57;3.37;;;1.27;;
8213;SDS011;4148;47.974;7.824;2024-02-23T04:53:25;2.90;;;0.90;;
8213;SDS011;4148;47.974;7.824;2024-02-23T04:55:53;1.80;;;0.80;;
8213;SDS011;4148;47.974;7.824;2024-02-23T04:58:23;4.33;;;1.10;;
8213;SDS011;4148;47.974;7.824;2024-02-23T05:00:51;6.83;;;1.10;;
8213;SDS011;4148;47.974;7.824;2024-02-23T05:03:19;4.17;;;1.03;;
8213;SDS011;4148;47.974;7.824;2024-02-23T05:05:47;2.57;;;1.30;;
8213;SDS011;4148;47.974;7.824;2024-02-23T05:08:19;2.97;;;0.80;;
8213;SDS011;4148;47.974;7.824;2024-02-23T05:10:47;1.70;;;0.87;;
8213;SDS011;4148;47.974;7.824;2024-02-23T05:13:16;7.50;;;1.27;;
8213;SDS011;4148;47.974;7.824;2024-02-23T05:15:45;7.60;;;1.37;;
8213;SDS011;4148;47.974;7.824;2024-02-23T05:18:13;6.00;;;1.13;;
8213;SDS011;4148;47.974;7.824;2024-02-23T05:20:41;2.90;;;1.23;;
8213;SDS011;4148;47.974;7.824;2024-02-23T05:23:09;3.73;;;0.90;;
8213;SDS011;4148;47.974;7.824;2024-02-23T05:25:37;3.83;;;1.27;;
8213;SDS011;4148;47.974;7.824;2024-02-23T05:28:05;3.83;;;1.20;;
8213;SDS011;4148;47.974;7.824;2024-02-23T05:30:33;7.40;;;1.20;;
8213;SDS011;4148;47.974;7.824;2024-02-23T05:33:02;3.53;;;1.20;;
8213;SDS011;4148;47.974;7.824;2024-02-23T05:35:31;2.40;;;0.90;;
8213;SDS011;4148;47.974;7.824;2024-02-23T05:37:59;7.70;;;1.13;;
8213;SDS011;4148;47.974;7.824;2024-02-23T05:40:27;3.50;;;1.17;;
8213;SDS011;4148;47.974;7.824;2024-02-23T05:42:55;3.43;;;1.00;;
8213;SDS011;4148;47.974;7.824;2024-02-23T05:45:23;5.27;;;1.10;;
8213;SDS011;4148;47.974;7.824;2024-02-23T05:47:51;2.17;;;1.00;;
8213;SDS011;4148;47.974;7.824;2024-02-23T05:50:21;2.00;;;1.03;;
8213;SDS011;4148;47.974;7.824;2024-02-23T05:52:49;3.20;;;1.50;;
8213;SDS011;4148;47.974;7.824;2024-02-23T05:55:16;3.63;;;0.90;;
8213;SDS011;4148;47.974;7.824;2024-02-23T05:57:44;5.47;;;1.83;;
8213;SDS011;4148;47.974;7.824;2024-02-23T06:00:13;4.53;;;1.23;;
8213;SDS011;4148;47.974;7.824;2024-02-23T06:02:45;5.90;;;1.17;;
8213;SDS011;4148;47.974;7.824;2024-02-23T06:05:13;5.03;;;1.10;;
8213;SDS011;4148;47.974;7.824;2024-02-23T06:07:42;3.40;;;1.27;;
8213;SDS011;4148;47.974;7.824;2024-02-23T06:10:10;3.17;;;1.10;;
8213;SDS011;4148;47.974;7.824;2024-02-23T06:12:38;3.33;;;1.23;;
8213;SDS011;4148;47.974;7.824;2024-02-23T06:15:06;5.00;;;1.27;;
8213;SDS011;4148;47.974;7.824;2024-02-23T06:17:35;2.60;;;1.10;;
8213;SDS011;4148;47.974;7.824;2024-02-23T06:20:03;2.90;;;1.60;;
8213;SDS011;4148;47.974;7.824;2024-02-23T06:22:34;5.27;;;1.40;;
8213;SDS011;4148;47.974;7.824;2024-02-23T06:25:03;6.03;;;1.30;;
8213;SDS011;4148;47.974;7.824;2024-02-23T06:27:31;8.63;;;1.20;;
8213;SDS011;4148;47.974;7.824;2024-02-23T06:29:59;4.93;;;1.60;;
8213;SDS011;4148;47.974;7.824;2024-02-23T06:32:27;5.23;;;1.00;;
8213;SDS011;4148;47.974;7.824;2024-02-23T06:34:55;4.47;;;1.30;;
8213;SDS011;4148;47.974;7.824;2024-02-23T06:37:26;2.33;;;0.90;;
8213;SDS011;4148;47.974;7.824;2024-02-23T06:39:54;6.67;;;1.53;;
8213;SDS011;4148;47.974;7.824;2024-02-23T06:42:23;3.60;;;1.40;;
8213;SDS011;4148;47.974;7.824;2024-02-23T06:44:51;3.60;;;1.10;;
8213;SDS011;4148;47.974;7.824;2024-02-23T06:47:20;5.57;;;1.20;;
8213;SDS011;4148;47.974;7.824;2024-02-23T06:49:48;9.40;;;1.77;;
8213;SDS011;4148;47.974;7.824;2024-02-23T06:52:16;6.63;;;2.17;;
8213;SDS011;4148;47.974;7.824;2024-02-23T06:54:45;9.67;;;1.20;;
8213;SDS011;4148;47.974;7.824;2024-02-23T06:57:13;2.63;;;1.30;;
8213;SDS011;4148;47.974;7.824;2024-02-23T06:59:42;5.13;;;1.90;;
8213;SDS011;4148;47.974;7.824;2024-02-23T07:02:10;9.30;;;1.83;;
8213;SDS011;4148;47.974;7.824;2024-02-23T07:04:38;7.23;;;1.73;;
8213;SDS011;4148;47.974;7.824;2024-02-23T07:07:06;5.93;;;1.20;;
8213;SDS011;4148;47.974;7.824;2024-02-23T07:09:34;3.67;;;1.53;;
8213;SDS011;4148;47.974;7.824;2024-02-23T07:12:02;6.53;;;1.37;;
8213;SDS011;4148;47.974;7.824;2024-02-23T07:14:31;7.93;;;1.50;;
8213;SDS011;4148;47.974;7.824;2024-02-23T07:17:00;6.13;;;1.50;;
8213;SDS011;4148;47.974;7.824;2024-02-23T07:19:29;4.13;;;1.53;;
8213;SDS011;4148;47.974;7.824;2024-02-23T07:21:57;5.47;;;1.90;;
8213;SDS011;4148;47.974;7.824;2024-02-23T07:24:25;8.20;;;1.93;;
8213;SDS011;4148;47.974;7.824;2024-02-23T07:26:52;4.63;;;1.50;;
8213;SDS011;4148;47.974;7.824;2024-02-23T07:29:20;6.80;;;2.13;;
8213;SDS011;4148;47.974;7.824;2024-02-23T07:31:48;5.60;;;1.80;;
8213;SDS011;4148;47.974;7.824;2024-02-23T07:34:17;6.70;;;1.40;;
8213;SDS011;4148;47.974;7.824;2024-02-23T07:36:45;4.03;;;1.30;;
8213;SDS011;4148;47.974;7.824;2024-02-23T07:39:13;8.30;;;1.83;;
8213;SDS011;4148;47.974;7.824;2024-02-23T07:41:41;7.63;;;1.33;;
8213;SDS011;4148;47.974;7.824;2024-02-23T07:44:09;7.70;;;1.30;;
8213;SDS011;4148;47.974;7.824;2024-02-23T07:46:37;14.27;;;1.90;;
8213;SDS011;4148;47.974;7.824;2024-02-23T07:49:05;14.00;;;3.23;;
8213;SDS011;4148;47.974;7.824;2024-02-23T07:51:34;10.77;;;2.50;;
8213;SDS011;4148;47.974;7.824;2024-02-23T07:54:02;5.07;;;2.57;;
8213;SDS011;4148;47.974;7.824;2024-02-23T07:56:31;3.93;;;2.53;;
8213;SDS011;4148;47.974;7.824;2024-02-23T07:58:59;7.80;;;4.67;;
8213;SDS011;4148;47.974;7.824;2024-02-23T08:01:29;15.13;;;3.13;;
8213;SDS011;4148;47.974;7.824;2024-02-23T08:03:57;8.03;;;4.87;;
8213;SDS011;4148;47.974;7.824;2024-02-23T08:06:25;13.07;;;2.30;;
8213;SDS011;4148;47.974;7.824;2024-02-23T08:08:54;13.47;;;2.33;;
8213;SDS011;4148;47.974;7.824;2024-02-23T08:11:22;6.73;;;2.07;;
8213;SDS011;4148;47.974;7.824;2024-02-23T08:13:50;7.83;;;1.90;;
8213;SDS011;4148;47.974;7.824;2024-02-23T08:16:18;8.90;;;1.60;;
8213;SDS011;4148;47.974;7.824;2024-02-23T08:18:46;3.80;;;1.33;;
8213;SDS011;4148;47.974;7.824;2024-02-23T08:21:14;8.50;;;1.73;;
8213;SDS011;4148;47.974;7.824;2024-02-23T08:23:42;4.40;;;2.00;;
8213;SDS011;4148;47.974;7.824;2024-02-23T08:26:12;7.67;;;2.03;;
8213;SDS011;4148;47.974;7.824;2024-02-23T08:28:41;6.30;;;1.43;;
8213;SDS011;4148;47.974;7.824;2024-02-23T08:31:09;8.10;;;2.13;;
8213;SDS011;4148;47.974;7.824;2024-02-23T08:33:37;8.60;;;1.90;;
8213;SDS011;4148;47.974;7.824;2024-02-23T08:36:05;6.77;;;2.30;;
8213;SDS011;4148;47.974;7.824;2024-02-23T08:38:34;3.77;;;1.40;;
8213;SDS011;4148;47.974;7.824;2024-02-23T08:41:02;5.93;;;1.60;;
8213;SDS011;4148;47.974;7.824;2024-02-23T08:43:31;8.43;;;1.93;;
8213;SDS011;4148;47.974;7.824;2024-02-23T08:45:59;5.97;;;1.70;;
8213;SDS011;4148;47.974;7.824;2024-02-23T08:48:33;8.37;;;2.73;;
8213;SDS011;4148;47.974;7.824;2024-02-23T08:51:01;7.90;;;2.10;;
8213;SDS011;4148;47.974;7.824;2024-02-23T08:53:29;4.97;;;1.73;;
8213;SDS011;4148;47.974;7.824;2024-02-23T08:55:57;9.33;;;2.00;;
8213;SDS011;4148;47.974;7.824;2024-02-23T08:58:25;4.37;;;1.53;;
8213;SDS011;4148;47.974;7.824;2024-02-23T09:00:54;8.47;;;1.67;;
8213;SDS011;4148;47.974;7.824;2024-02-23T09:03:22;7.73;;;1.60;;
8213;SDS011;4148;47.974;7.824;2024-02-23T09:05:50;3.53;;;1.40;;
8213;SDS011;4148;47.974;7.824;2024-02-23T09:08:18;3.60;;;1.60;;
8213;SDS011;4148;47.974;7.824;2024-02-23T09:10:46;6.63;;;2.20;;
8213;SDS011;4148;47.974;7.824;2024-02-23T09:13:14;6.80;;;2.13;;
8213;SDS011;4148;47.974;7.824;2024-02-23T09:15:42;5.57;;;2.40;;
8213;SDS011;4148;47.974;7.824;2024-02-23T09:18:12;2.70;;;1.33;;
8213;SDS011;4148;47.974;7.824;2024-02-23T09:20:40;4.63;;;1.80;;
8213;SDS011;4148;47.974;7.824;2024-02-23T09:23:08;7.07;;;1.53;;
8213;SDS011;4148;47.974;7.824;2024-02-23T09:25:36;5.47;;;1.93;;
8213;SDS011;4148;47.974;7.824;2024-02-23T09:28:07;4.10;;;1.83;;
8213;SDS011;4148;47.974;7.824;2024-02-23T09:30:37;3.53;;;1.70;;
8213;SDS011;4148;47.974;7.824;2024-02-23T09:33:05;6.03;;;2.10;;
8213;SDS011;4148;47.974;7.824;2024-02-23T09:35:35;3.47;;;1.40;;
8213;SDS011;4148;47.974;7.824;2024-02-23T09:38:04;5.90;;;1.90;;
8213;SDS011;4148;47.974;7.824;2024-02-23T09:40:32;3.37;;;1.53;;
8213;SDS011;4148;47.974;7.824;2024-02-23T09:43:00;5.53;;;1.57;;
8213;SDS011;4148;47.974;7.824;2024-02-23T09:45:29;3.90;;;1.30;;
8213;SDS011;4148;47.974;7.824;2024-02-23T09:47:58;4.47;;;1.80;;
8213;SDS011;4148;47.974;7.824;2024-02-23T09:50:27;4.90;;;1.53;;
8213;SDS011;4148;47.974;7.824;2024-02-23T09:52:58;7.60;;;1.90;;
8213;SDS011;4148;47.974;7.824;2024-02-23T09:55:26;4.97;;;1.50;;
8213;SDS011;4148;47.974;7.824;2024-02-23T09:57:55;3.47;;;1.50;;
8213;SDS011;4148;47.974;7.824;2024-02-23T10:00:26;6.20;;;1.77;;
8213;SDS011;4148;47.974;7.824;2024-02-23T10:02:55;5.43;;;2.40;;
8213;SDS011;4148;47.974;7.824;2024-02-23T10:05:28;5.70;;;2.20;;
8213;SDS011;4148;47.974;7.824;2024-02-23T10:08:04;8.13;;;3.00;;
8213;SDS011;4148;47.974;7.824;2024-02-23T10:10:33;7.30;;;2.37;;
8213;SDS011;4148;47.974;7.824;2024-02-23T10:13:04;9.53;;;3.47;;
8213;SDS011;4148;47.974;7.824;2024-02-23T10:15:32;5.00;;;1.80;;
8213;SDS011;4148;47.974;7.824;2024-02-23T10:18:00;7.87;;;1.90;;
8213;SDS011;4148;47.974;7.824;2024-02-23T10:20:29;6.73;;;1.97;;
8213;SDS011;4148;47.974;7.824;2024-02-23T10:22:57;4.90;;;2.33;;
8213;SDS011;4148;47.974;7.824;2024-02-23T10:25:26;7.60;;;2.20;;
8213;SDS011;4148;47.974;7.824;2024-02-23T10:27:54;6.47;;;2.30;;
8213;SDS011;4148;47.974;7.824;2024-02-23T10:30:22;8.93;;;2.47;;
8213;SDS011;4148;47.974;7.824;2024-02-23T10:32:50;5.10;;;2.00;;
8213;SDS011;4148;47.974;7.824;2024-02-23T10:35:22;7.17;;;2.60;;
8213;SDS011;4148;47.974;7.824;2024-02-23T10:37:52;5.87;;;2.63;;
8213;SDS011;4148;47.974;7.824;2024-02-23T10:40:21;4.27;;;1.70;;
8213;SDS011;4148;47.974;7.824;2024-02-23T10:42:51;3.20;;;1.80;;
8213;SDS011;4148;47.974;7.824;2024-02-23T10:45:23;3.00;;;1.50;;
8213;SDS011;4148;47.974;7.824;2024-02-23T10:47:52;3.23;;;1.30;;
8213;SDS011;4148;47.974;7.824;2024-02-23T10:50:21;5.77;;;1.60;;
8213;SDS011;4148;47.974;7.824;2024-02-23T10:52:50;5.00;;;1.40;;
8213;SDS011;4148;47.974;7.824;2024-02-23T10:55:19;5.57;;;1.83;;
8213;SDS011;4148;47.974;7.824;2024-02-23T10:57:48;3.73;;;1.50;;
8213;SDS011;4148;47.974;7.824;2024-02-23T11:00:21;5.67;;;2.80;;
8213;SDS011;4148;47.974;7.824;2024-02-23T11:02:51;4.27;;;1.30;;
8213;SDS011;4148;47.974;7.824;2024-02-23T11:05:22;4.40;;;1.53;;
8213;SDS011;4148;47.974;7.824;2024-02-23T11:07:51;4.23;;;1.40;;
8213;SDS011;4148;47.974;7.824;2024-02-23T11:10:22;4.83;;;1.50;;
8213;SDS011;4148;47.974;7.824;2024-02-23T11:12:58;2.50;;;1.60;;
8213;SDS011;4148;47.974;7.824;2024-02-23T11:15:27;3.50;;;1.30;;
8213;SDS011;4148;47.974;7.824;2024-02-23T11:17:56;6.60;;;1.87;;
8213;SDS011;4148;47.974;7.824;2024-02-23T11:20:24;6.47;;;1.30;;
8213;SDS011;4148;47.974;7.824;2024-02-23T11:23:12;3.13;;;1.13;;
8213;SDS011;4148;47.974;7.824;2024-02-23T11:25:41;9.03;;;1.77;;
8213;SDS011;4148;47.974;7.824;2024-02-23T11:28:10;3.50;;;1.50;;
8213;SDS011;4148;47.974;7.824;2024-02-23T11:30:49;5.43;;;1.90;;
8213;SDS011;4148;47.974;7.824;2024-02-23T11:33:25;3.13;;;1.03;;
8213;SDS011;4148;47.974;7.824;2024-02-23T11:36:04;2.67;;;1.17;;
8213;SDS011;4148;47.974;7.824;2024-02-23T11:38:32;6.03;;;1.40;;
8213;SDS011;4148;47.974;7.824;2024-02-23T11:41:01;4.73;;;1.70;;
8213;SDS011;4148;47.974;7.824;2024-02-23T11:43:31;6.63;;;1.37;;
8213;SDS011;4148;47.974;7.824;2024-02-23T11:46:02;7.10;;;1.60;;
8213;SDS011;4148;47.974;7.824;2024-02-23T11:48:30;7.97;;;1.67;;
8213;SDS011;4148;47.974;7.824;2024-02-23T11:50:58;2.40;;;1.40;;
8213;SDS011;4148;47.974;7.824;2024-02-23T11:53:26;2.57;;;1.30;;
8213;SDS011;4148;47.974;7.824;2024-02-23T11:55:54;3.93;;;1.17;;
8213;SDS011;4148;47.974;7.824;2024-02-23T11:58:23;5.10;;;1.70;;
8213;SDS011;4148;47.974;7.824;2024-02-23T12:00:52;5.90;;;1.40;;
8213;SDS011;4148;47.974;7.824;2024-02-23T12:03:20;5.20;;;1.63;;
8213;SDS011;4148;47.974;7.824;2024-02-23T12:05:49;5.17;;;1.47;;
8213;SDS011;4148;47.974;7.824;2024-02-23T12:08:17;5.00;;;1.47;;
8213;SDS011;4148;47.974;7.824;2024-02-23T12:10:45;8.63;;;2.23;;
8213;SDS011;4148;47.974;7.824;2024-02-23T12:13:14;2.70;;;1.10;;
8213;SDS011;4148;47.974;7.824;2024-02-23T12:15:42;4.03;;;1.60;;
8213;SDS011;4148;47.974;7.824;2024-02-23T12:18:11;3.90;;;1.53;;
8213;SDS011;4148;47.974;7.824;2024-02-23T12:20:39;3.60;;;1.60;;
8213;SDS011;4148;47.974;7.824;2024-02-23T12:23:07;4.87;;;1.23;;
8213;SDS011;4148;47.974;7.824;2024-02-23T12:25:36;3.27;;;1.20;;
8213;SDS011;4148;47.974;7.824;2024-02-23T12:28:08;3.00;;;1.20;;
8213;SDS011;4148;47.974;7.824;2024-02-23T12:30:36;5.67;;;1.20;;
8213;SDS011;4148;47.974;7.824;2024-02-23T12:33:04;8.00;;;1.63;;
8213;SDS011;4148;47.974;7.824;2024-02-23T12:35:35;4.90;;;1.30;;
8213;SDS011;4148;47.974;7.824;2024-02-23T12:38:03;4.23;;;1.80;;
8213;SDS011;4148;47.974;7.824;2024-02-23T12:40:31;4.57;;;1.50;;
8213;SDS011;4148;47.974;7.824;2024-02-23T12:42:59;8.03;;;1.30;;
8213;SDS011;4148;47.974;7.824;2024-02-23T12:45:27;2.87;;;1.20;;
8213;SDS011;4148;47.974;7.824;2024-02-23T12:47:55;5.73;;;1.50;;
8213;SDS011;4148;47.974;7.824;2024-02-23T12:50:23;2.73;;;1.20;;
8213;SDS011;4148;47.974;7.824;2024-02-23T12:52:52;3.67;;;1.30;;
8213;SDS011;4148;47.974;7.824;2024-02-23T12:55:20;3.67;;;1.40;;
8213;SDS011;4148;47.974;7.824;2024-02-23T12:57:48;2.87;;;1.40;;
8213;SDS011;4148;47.974;7.824;2024-02-23T13:00:16;4.50;;;1.20;;
8213;SDS011;4148;47.974;7.824;2024-02-23T13:02:45;4.53;;;1.73;;
8213;SDS011;4148;47.974;7.824;2024-02-23T13:05:13;6.80;;;1.23;;
8213;SDS011;4148;47.974;7.824;2024-02-23T13:07:42;3.87;;;1.30;;
8213;SDS011;4148;47.974;7.824;2024-02-23T13:10:11;5.43;;;1.23;;
8213;SDS011;4148;47.974;7.824;2024-02-23T13:12:39;2.50;;;1.10;;
8213;SDS011;4148;47.974;7.824;2024-02-23T13:15:07;3.93;;;1.40;;
8213;SDS011;4148;47.974;7.824;2024-02-23T13:17:35;5.07;;;1.27;;
8213;SDS011;4148;47.974;7.824;2024-02-23T13:20:03;3.13;;;1.30;;
8213;SDS011;4148;47.974;7.824;2024-02-23T13:22:37;4.00;;;1.10;;
8213;SDS011;4148;47.974;7.824;2024-02-23T13:25:05;4.10;;;1.30;;
8213;SDS011;4148;47.974;7.824;2024-02-23T13:27:35;3.20;;;1.10;;
8213;SDS011;4148;47.974;7.824;2024-02-23T13:30:03;4.17;;;1.37;;
8213;SDS011;4148;47.974;7.824;2024-02-23T13:32:33;7.67;;;4.10;;
8213;SDS011;4148;47.974;7.824;2024-02-23T13:35:01;3.30;;;1.30;;
8213;SDS011;4148;47.974;7.824;2024-02-23T13:37:30;4.10;;;1.57;;
8213;SDS011;4148;47.974;7.824;2024-02-23T13:39:59;3.67;;;1.33;;
8213;SDS011;4148;47.974;7.824;2024-02-23T13:42:27;4.67;;;1.30;;
8213;SDS011;4148;47.974;7.824;2024-02-23T13:44:56;4.23;;;1.30;;
8213;SDS011;4148;47.974;7.824;2024-02-23T13:47:26;2.70;;;1.50;;
8213;SDS011;4148;47.974;7.824;2024-02-23T13:49:54;4.30;;;1.40;;
8213;SDS011;4148;47.974;7.824;2024-02-23T13:52:22;3.50;;;1.50;;
8213;SDS011;4148;47.974;7.824;2024-02-23T13:54:50;3.47;;;1.10;;
8213;SDS011;4148;47.974;7.824;2024-02-23T13:57:18;6.87;;;1.33;;
8213;SDS011;4148;47.974;7.824;2024-02-23T13:59:46;4.70;;;2.40;;
8213;SDS011;4148;47.974;7.824;2024-02-23T14:02:15;4.73;;;1.73;;
8213;SDS011;4148;47.974;7.824;2024-02-23T14:04:45;5.30;;;1.50;;
8213;SDS011;4148;47.974;7.824;2024-02-23T14:07:13;4.20;;;1.30;;
8213;SDS011;4148;47.974;7.824;2024-02-23T14:09:41;3.47;;;1.67;;
8213;SDS011;4148;47.974;7.824;2024-02-23T14:12:09;5.30;;;2.83;;
8213;SDS011;4148;47.974;7.824;2024-02-23T14:14:37;5.33;;;2.10;;
8213;SDS011;4148;47.974;7.824;2024-02-23T14:17:05;2.93;;;1.30;;
8213;SDS011;4148;47.974;7.824;2024-02-23T14:19:35;4.13;;;1.67;;
8213;SDS011;4148;47.974;7.824;2024-02-23T14:22:04;4.43;;;1.80;;
8213;SDS011;4148;47.974;7.824;2024-02-23T14:24:32;3.10;;;1.70;;
8213;SDS011;4148;47.974;7.824;2024-02-23T14:27:00;3.80;;;1.60;;
8213;SDS011;4148;47.974;7.824;2024-02-23T14:29:28;2.03;;;1.07;;
8213;SDS011;4148;47.974;7.824;2024-02-23T14:31:56;3.93;;;1.40;;
8213;SDS011;4148;47.974;7.824;2024-02-23T14:34:27;2.97;;;1.40;;
8213;SDS011;4148;47.974;7.824;2024-02-23T14:36:57;2.17;;;1.10;;
8213;SDS011;4148;47.974;7.824;2024-02-23T14:39:25;4.17;;;1.20;;
8213;SDS011;4148;47.974;7.824;2024-02-23T14:41:53;2.13;;;1.10;;
8213;SDS011;4148;47.974;7.824;2024-02-23T14:44:22;3.10;;;1.37;;
8213;SDS011;4148;47.974;7.824;2024-02-23T14:46:50;4.67;;;1.77;;
8213;SDS011;4148;47.974;7.824;2024-02-23T14:49:18;4.33;;;1.50;;
8213;SDS011;4148;47.974;7.824;2024-02-23T14:51:46;3.80;;;1.33;;
8213;SDS011;4148;47.974;7.824;2024-02-23T14:54:16;2.67;;;1.10;;
8213;SDS011;4148;47.974;7.824;2024-02-23T14:56:43;4.00;;;1.30;;
8213;SDS011;4148;47.974;7.824;2024-02-23T14:59:13;3.10;;;1.20;;
8213;SDS011;4148;47.974;7.824;2024-02-23T15:01:41;4.03;;;1.40;;
8213;SDS011;4148;47.974;7.824;2024-02-23T15:04:09;4.73;;;1.10;;
8213;SDS011;4148;47.974;7.824;2024-02-23T15:06:39;5.77;;;1.40;;
8213;SDS011;4148;47.974;7.824;2024-02-23T15:09:07;1.70;;;1.00;;
8213;SDS011;4148;47.974;7.824;2024-02-23T15:11:36;2.80;;;0.97;;
8213;SDS011;4148;47.974;7.824;2024-02-23T15:14:05;1.60;;;0.80;;
8213;SDS011;4148;47.974;7.824;2024-02-23T15:16:33;2.03;;;0.83;;
8213;SDS011;4148;47.974;7.824;2024-02-23T15:19:02;3.17;;;0.90;;
8213;SDS011;4148;47.974;7.824;2024-02-23T15:21:33;1.60;;;0.80;;
8213;SDS011;4148;47.974;7.824;2024-02-23T15:24:06;2.70;;;0.90;;